»·PEaware :: AAL247 KSAN-KLAS

AAL247 :: KSAN-KLAS

FLIGHT INFORMATION

Flight Status: Arrived
Operator:
American Airlines
More flights by this operator :: More flights under this callsign
Pilot: Ben F. (13029)
Aircraft: BOEING 757-200
(B752)
More flights by this aircraft type
Origin: KSAN San Diego Intl-Lindbergh
United States
Destination: KLAS McCarran Intl
United States
More flights between these airports :: More routes between these airports
Route: +PADRZ2 CHKNN SEBBY/N0465F350 YELAH MISEN KEPEC6
File this flight plan on PilotEdge
Remarks: RMK / SIMBRIEF
Altitude:
(Current/Filed)
30,000ft
Speed:
(Current/Filed)
463kts
Departed: 09-Jun-19 01:22 PM
Arrived: 09-Jun-19 02:21 PM
Distance/Time
Traveled:
225nm/0:59
Distance/Time
To Go:
Arrived

Flight Plot

Page will automatically refresh every two minutes.

Flight plan parsing failed; only flown route is shown


Map Options




Map Legend


Flown Route
Filed Route
Departure Airport
Arrival Airport
Navaid (VOR, NDB)
Fix

Horizontal Profiles

Position Reports

Time Latitude Longitude Heading Altitude Ground
Speed
09-Jun-19 12:54 32.733420 -117.200711 264 26ft 0kts
09-Jun-19 12:55 32.733420 -117.200711 264 26ft 0kts
09-Jun-19 12:56 32.733420 -117.200711 264 26ft 0kts
09-Jun-19 12:57 32.733420 -117.200711 264 26ft 0kts
09-Jun-19 12:58 32.733420 -117.200711 264 26ft 0kts
09-Jun-19 12:59 32.733420 -117.200711 264 26ft 0kts
09-Jun-19 13:00 32.733420 -117.200711 264 26ft 0kts
09-Jun-19 13:01 32.733420 -117.200711 264 26ft 0kts
09-Jun-19 13:02 32.733420 -117.200711 264 26ft 0kts
09-Jun-19 13:03 32.733420 -117.200711 264 26ft 0kts
09-Jun-19 13:04 32.733420 -117.200711 264 26ft 0kts
09-Jun-19 13:05 32.733420 -117.200711 264 26ft 0kts
09-Jun-19 13:06 32.733420 -117.200711 264 26ft 0kts
09-Jun-19 13:06 32.733420 -117.200711 264 26ft 0kts
09-Jun-19 13:08 32.733420 -117.200711 264 26ft 0kts
09-Jun-19 13:09 32.733420 -117.200711 264 26ft 0kts
09-Jun-19 13:09 32.733420 -117.200711 264 26ft 0kts
09-Jun-19 13:11 32.733420 -117.200710 264 26ft 0kts
09-Jun-19 13:11 32.733446 -117.200412 264 26ft 2kts
09-Jun-19 13:12 32.733165 -117.199893 3 26ft 2kts
09-Jun-19 13:13 32.733058 -117.199919 14 26ft 0kts
09-Jun-19 13:15 32.733058 -117.199919 14 26ft 0kts
09-Jun-19 13:15 32.733058 -117.199919 14 26ft 0kts
09-Jun-19 13:16 32.734689 -117.199287 58 26ft 15kts
09-Jun-19 13:17 32.732977 -117.191527 105 26ft 33kts
09-Jun-19 13:18 32.730265 -117.180361 106 26ft 32kts
09-Jun-19 13:19 32.729517 -117.176703 74 26ft 2kts
09-Jun-19 13:20 32.730498 -117.177045 287 26ft 31kts
09-Jun-19 13:21 32.739060 -117.213808 306 1008ft 143kts
09-Jun-19 13:22 32.763033 -117.253306 301 2367ft 161kts
09-Jun-19 13:23 32.786031 -117.302244 298 4212ft 182kts
09-Jun-19 13:24 32.821040 -117.364292 307 5063ft 256kts
09-Jun-19 13:25 32.863443 -117.430229 307 6948ft 253kts
09-Jun-19 13:26 32.909571 -117.495493 309 9841ft 265kts
09-Jun-19 13:27 32.960357 -117.573019 307 11239ft 337kts
09-Jun-19 13:28 33.018212 -117.663315 307 14147ft 351kts
09-Jun-19 13:29 33.081883 -117.753599 319 16643ft 364kts
09-Jun-19 13:30 33.160712 -117.833989 319 18978ft 377kts
09-Jun-19 13:31 33.242671 -117.915467 320 21084ft 391kts
09-Jun-19 13:32 33.328113 -117.998903 320 23064ft 403kts
09-Jun-19 13:33 33.415734 -118.084701 320 24875ft 414kts
09-Jun-19 13:34 33.505823 -118.173159 320 26545ft 425kts
09-Jun-19 13:35 33.602075 -118.256661 335 28073ft 435kts
09-Jun-19 13:36 33.718445 -118.297145 2 28972ft 442kts
09-Jun-19 13:37 33.831213 -118.243236 42 28973ft 441kts
09-Jun-19 13:38 33.912207 -118.131800 49 28963ft 441kts
09-Jun-19 13:39 33.992677 -118.018295 49 28963ft 441kts
09-Jun-19 13:40 34.072930 -117.904760 49 28963ft 441kts
09-Jun-19 13:41 34.151671 -117.793013 49 28963ft 441kts
09-Jun-19 13:42 34.231088 -117.679943 49 28963ft 441kts
09-Jun-19 13:43 34.310308 -117.566799 49 28963ft 441kts
09-Jun-19 13:44 34.389533 -117.453281 49 28963ft 441kts
09-Jun-19 13:45 34.464621 -117.335957 64 28973ft 441kts
09-Jun-19 13:46 34.479117 -117.190661 94 28966ft 441kts
09-Jun-19 13:47 34.508262 -117.049176 56 28966ft 441kts
09-Jun-19 13:48 34.603268 -116.959433 20 28967ft 441kts
09-Jun-19 13:49 34.701088 -116.872601 46 28964ft 441kts
09-Jun-19 13:50 34.781656 -116.761448 49 28955ft 422kts
09-Jun-19 13:51 34.857663 -116.653221 42 28609ft 420kts
09-Jun-19 13:52 34.947378 -116.564801 38 26858ft 407kts
09-Jun-19 13:53 35.034559 -116.480053 38 25214ft 397kts
09-Jun-19 13:54 35.118263 -116.394582 45 23658ft 388kts
09-Jun-19 13:55 35.191157 -116.303499 45 22156ft 379kts
09-Jun-19 13:56 35.263670 -116.212522 45 20680ft 371kts
09-Jun-19 13:57 35.334786 -116.123051 45 19246ft 363kts
09-Jun-19 13:58 35.404352 -116.035293 45 17854ft 355kts
09-Jun-19 13:59 35.472213 -115.949488 45 16505ft 348kts
09-Jun-19 14:00 35.538740 -115.865145 45 15186ft 341kts
09-Jun-19 14:01 35.603945 -115.782275 45 13896ft 334kts
09-Jun-19 14:02 35.667666 -115.701053 46 12900ft 315kts
09-Jun-19 14:03 35.726166 -115.626378 45 12780ft 301kts
09-Jun-19 14:04 35.797869 -115.582457 2 12784ft 301kts
09-Jun-19 14:05 35.881381 -115.577492 2 12780ft 301kts
09-Jun-19 14:06 35.963136 -115.562228 34 12796ft 301kts
09-Jun-19 14:07 36.004085 -115.474586 68 11585ft 296kts
09-Jun-19 14:08 36.031377 -115.380769 87 10704ft 281kts
09-Jun-19 14:09 36.025687 -115.286417 95 9667ft 268kts
09-Jun-19 14:10 36.019210 -115.195246 94 8495ft 265kts
09-Jun-19 14:11 36.013178 -115.106710 95 7919ft 247kts
09-Jun-19 14:12 35.982630 -115.045613 183 7333ft 231kts
09-Jun-19 14:13 35.922238 -115.071927 201 6507ft 229kts
09-Jun-19 14:14 35.893213 -115.125852 272 6409ft 198kts
09-Jun-19 14:15 35.923588 -115.176793 319 6367ft 202kts
09-Jun-19 14:16 35.964441 -115.214374 338 5736ft 171kts
09-Jun-19 14:17 36.007664 -115.208871 26 4300ft 162kts
09-Jun-19 14:18 36.044141 -115.188149 25 3086ft 142kts
09-Jun-19 14:19 36.077839 -115.168906 24 2169ft 125kts
09-Jun-19 14:20 36.088812 -115.162016 111 2122ft 0kts
09-Jun-19 14:21 36.088606 -115.161441 114 2122ft 11kts
09-Jun-19 14:22 36.086855 -115.158053 155 2122ft 14kts
09-Jun-19 14:23 36.085059 -115.155118 82 2122ft 6kts

Navigation Log

Ident Type
Flight plan parsing failed, navigation log unavailable